sensor_id;sensor_type;location;lat;lon;timestamp;P1;durP1;ratioP1;P2;durP2;ratioP2
80819;SDS011;70225;48.404;8.016;2023-06-24T00:01:00;36.83;;;34.17;;
80819;SDS011;70225;48.404;8.016;2023-06-24T00:03:25;32.35;;;30.10;;
80819;SDS011;70225;48.404;8.016;2023-06-24T00:05:50;30.37;;;28.27;;
80819;SDS011;70225;48.404;8.016;2023-06-24T00:08:16;27.15;;;25.25;;
80819;SDS011;70225;48.404;8.016;2023-06-24T00:10:43;28.23;;;26.02;;
80819;SDS011;70225;48.404;8.016;2023-06-24T00:13:08;25.50;;;23.55;;
80819;SDS011;70225;48.404;8.016;2023-06-24T00:15:33;27.63;;;25.40;;
80819;SDS011;70225;48.404;8.016;2023-06-24T00:17:58;26.60;;;24.70;;
80819;SDS011;70225;48.404;8.016;2023-06-24T00:20:26;24.98;;;23.17;;
80819;SDS011;70225;48.404;8.016;2023-06-24T00:22:51;28.53;;;26.27;;
80819;SDS011;70225;48.404;8.016;2023-06-24T00:25:16;32.27;;;29.83;;
80819;SDS011;70225;48.404;8.016;2023-06-24T00:27:41;28.80;;;26.80;;
80819;SDS011;70225;48.404;8.016;2023-06-24T00:30:07;29.27;;;27.07;;
80819;SDS011;70225;48.404;8.016;2023-06-24T00:32:35;30.85;;;28.42;;
80819;SDS011;70225;48.404;8.016;2023-06-24T00:35:00;30.23;;;28.17;;
80819;SDS011;70225;48.404;8.016;2023-06-24T00:37:28;32.17;;;29.87;;
80819;SDS011;70225;48.404;8.016;2023-06-24T00:39:55;31.83;;;29.58;;
80819;SDS011;70225;48.404;8.016;2023-06-24T00:42:20;31.77;;;29.43;;
80819;SDS011;70225;48.404;8.016;2023-06-24T00:44:46;36.50;;;34.10;;
80819;SDS011;70225;48.404;8.016;2023-06-24T00:47:11;30.17;;;27.80;;
80819;SDS011;70225;48.404;8.016;2023-06-24T00:49:39;27.75;;;25.63;;
80819;SDS011;70225;48.404;8.016;2023-06-24T00:52:04;28.88;;;26.80;;
80819;SDS011;70225;48.404;8.016;2023-06-24T00:54:30;28.17;;;26.00;;
80819;SDS011;70225;48.404;8.016;2023-06-24T00:56:58;32.78;;;30.48;;
80819;SDS011;70225;48.404;8.016;2023-06-24T00:59:23;33.05;;;30.73;;
80819;SDS011;70225;48.404;8.016;2023-06-24T01:01:48;39.15;;;36.35;;
80819;SDS011;70225;48.404;8.016;2023-06-24T01:04:15;35.20;;;32.67;;
80819;SDS011;70225;48.404;8.016;2023-06-24T01:06:43;39.42;;;36.42;;
80819;SDS011;70225;48.404;8.016;2023-06-24T01:09:09;42.63;;;39.65;;
80819;SDS011;70225;48.404;8.016;2023-06-24T01:11:34;38.63;;;35.75;;
80819;SDS011;70225;48.404;8.016;2023-06-24T01:13:59;48.22;;;45.00;;
80819;SDS011;70225;48.404;8.016;2023-06-24T01:25:08;48.22;;;44.83;;
80819;SDS011;70225;48.404;8.016;2023-06-24T01:35:39;48.08;;;44.88;;
80819;SDS011;70225;48.404;8.016;2023-06-24T01:38:10;48.50;;;45.22;;
80819;SDS011;70225;48.404;8.016;2023-06-24T01:40:44;45.42;;;42.05;;
80819;SDS011;70225;48.404;8.016;2023-06-24T01:43:10;51.03;;;47.55;;
80819;SDS011;70225;48.404;8.016;2023-06-24T01:45:42;54.72;;;50.92;;
80819;SDS011;70225;48.404;8.016;2023-06-24T01:48:31;47.17;;;44.08;;
80819;SDS011;70225;48.404;8.016;2023-06-24T01:51:06;41.65;;;38.72;;
80819;SDS011;70225;48.404;8.016;2023-06-24T01:53:35;46.50;;;42.97;;
80819;SDS011;70225;48.404;8.016;2023-06-24T01:56:02;38.55;;;35.92;;
80819;SDS011;70225;48.404;8.016;2023-06-24T01:58:30;36.58;;;34.10;;
80819;SDS011;70225;48.404;8.016;2023-06-24T02:00:57;36.28;;;33.47;;
80819;SDS011;70225;48.404;8.016;2023-06-24T02:03:24;36.67;;;33.75;;
80819;SDS011;70225;48.404;8.016;2023-06-24T02:05:51;36.67;;;34.08;;
80819;SDS011;70225;48.404;8.016;2023-06-24T02:08:19;37.80;;;35.10;;
80819;SDS011;70225;48.404;8.016;2023-06-24T02:10:47;41.03;;;38.25;;
80819;SDS011;70225;48.404;8.016;2023-06-24T02:13:14;62.95;;;58.78;;
80819;SDS011;70225;48.404;8.016;2023-06-24T02:15:41;58.08;;;54.22;;
80819;SDS011;70225;48.404;8.016;2023-06-24T02:18:08;54.25;;;50.63;;
80819;SDS011;70225;48.404;8.016;2023-06-24T02:20:34;55.30;;;51.58;;
80819;SDS011;70225;48.404;8.016;2023-06-24T02:23:01;52.83;;;49.28;;
80819;SDS011;70225;48.404;8.016;2023-06-24T02:25:27;54.13;;;50.30;;
80819;SDS011;70225;48.404;8.016;2023-06-24T02:27:53;42.53;;;39.30;;
80819;SDS011;70225;48.404;8.016;2023-06-24T02:30:20;44.08;;;40.90;;
80819;SDS011;70225;48.404;8.016;2023-06-24T02:32:46;39.20;;;36.28;;
80819;SDS011;70225;48.404;8.016;2023-06-24T02:35:12;42.08;;;39.08;;
80819;SDS011;70225;48.404;8.016;2023-06-24T02:37:37;36.28;;;33.53;;
80819;SDS011;70225;48.404;8.016;2023-06-24T02:40:03;35.70;;;32.70;;
80819;SDS011;70225;48.404;8.016;2023-06-24T02:42:29;41.63;;;38.90;;
80819;SDS011;70225;48.404;8.016;2023-06-24T02:44:54;47.90;;;44.60;;
80819;SDS011;70225;48.404;8.016;2023-06-24T02:47:22;45.80;;;42.45;;
80819;SDS011;70225;48.404;8.016;2023-06-24T02:49:48;48.50;;;45.30;;
80819;SDS011;70225;48.404;8.016;2023-06-24T02:52:15;58.70;;;54.80;;
80819;SDS011;70225;48.404;8.016;2023-06-24T02:54:41;62.25;;;58.05;;
80819;SDS011;70225;48.404;8.016;2023-06-24T02:57:06;57.80;;;54.08;;
80819;SDS011;70225;48.404;8.016;2023-06-24T02:59:33;50.20;;;46.60;;
80819;SDS011;70225;48.404;8.016;2023-06-24T03:02:00;49.63;;;46.35;;
80819;SDS011;70225;48.404;8.016;2023-06-24T03:04:29;50.70;;;47.33;;
80819;SDS011;70225;48.404;8.016;2023-06-24T03:06:55;48.42;;;45.25;;
80819;SDS011;70225;48.404;8.016;2023-06-24T03:09:23;47.85;;;44.30;;
80819;SDS011;70225;48.404;8.016;2023-06-24T03:11:51;39.78;;;36.83;;
80819;SDS011;70225;48.404;8.016;2023-06-24T03:14:16;40.13;;;37.05;;
80819;SDS011;70225;48.404;8.016;2023-06-24T03:16:44;39.60;;;36.90;;
80819;SDS011;70225;48.404;8.016;2023-06-24T03:19:09;39.17;;;36.38;;
80819;SDS011;70225;48.404;8.016;2023-06-24T03:21:35;38.80;;;35.80;;
80819;SDS011;70225;48.404;8.016;2023-06-24T03:24:00;34.55;;;32.05;;
80819;SDS011;70225;48.404;8.016;2023-06-24T03:26:35;34.92;;;32.33;;
80819;SDS011;70225;48.404;8.016;2023-06-24T03:29:04;35.10;;;32.53;;
80819;SDS011;70225;48.404;8.016;2023-06-24T03:31:30;38.28;;;35.20;;
80819;SDS011;70225;48.404;8.016;2023-06-24T03:33:55;37.35;;;34.70;;
80819;SDS011;70225;48.404;8.016;2023-06-24T03:36:21;36.80;;;34.00;;
80819;SDS011;70225;48.404;8.016;2023-06-24T03:38:47;38.05;;;35.45;;
80819;SDS011;70225;48.404;8.016;2023-06-24T03:41:12;35.92;;;33.13;;
80819;SDS011;70225;48.404;8.016;2023-06-24T03:43:40;37.42;;;34.65;;
80819;SDS011;70225;48.404;8.016;2023-06-24T03:46:07;38.28;;;35.28;;
80819;SDS011;70225;48.404;8.016;2023-06-24T03:48:33;37.58;;;34.75;;
80819;SDS011;70225;48.404;8.016;2023-06-24T03:50:58;41.53;;;38.63;;
80819;SDS011;70225;48.404;8.016;2023-06-24T03:53:23;83.22;;;77.60;;
80819;SDS011;70225;48.404;8.016;2023-06-24T03:55:48;88.53;;;82.70;;
80819;SDS011;70225;48.404;8.016;2023-06-24T03:58:14;82.97;;;77.37;;
80819;SDS011;70225;48.404;8.016;2023-06-24T04:00:41;76.38;;;71.30;;
80819;SDS011;70225;48.404;8.016;2023-06-24T04:03:07;77.30;;;72.03;;
80819;SDS011;70225;48.404;8.016;2023-06-24T04:05:34;49.33;;;45.93;;
80819;SDS011;70225;48.404;8.016;2023-06-24T04:08:04;47.90;;;44.42;;
80819;SDS011;70225;48.404;8.016;2023-06-24T04:10:30;72.70;;;67.93;;
80819;SDS011;70225;48.404;8.016;2023-06-24T04:12:55;62.50;;;58.30;;
80819;SDS011;70225;48.404;8.016;2023-06-24T04:15:23;58.72;;;54.78;;
80819;SDS011;70225;48.404;8.016;2023-06-24T04:17:48;60.97;;;56.88;;
80819;SDS011;70225;48.404;8.016;2023-06-24T04:20:13;53.92;;;50.28;;
80819;SDS011;70225;48.404;8.016;2023-06-24T04:22:39;43.47;;;40.53;;
80819;SDS011;70225;48.404;8.016;2023-06-24T04:25:08;56.13;;;52.42;;
80819;SDS011;70225;48.404;8.016;2023-06-24T04:27:34;48.97;;;45.65;;
80819;SDS011;70225;48.404;8.016;2023-06-24T04:30:02;46.67;;;43.47;;
80819;SDS011;70225;48.404;8.016;2023-06-24T04:32:28;43.70;;;40.35;;
80819;SDS011;70225;48.404;8.016;2023-06-24T04:34:55;38.15;;;35.15;;
80819;SDS011;70225;48.404;8.016;2023-06-24T04:37:20;42.97;;;39.80;;
80819;SDS011;70225;48.404;8.016;2023-06-24T04:39:46;39.33;;;36.65;;
80819;SDS011;70225;48.404;8.016;2023-06-24T04:42:12;44.80;;;41.72;;
80819;SDS011;70225;48.404;8.016;2023-06-24T04:44:42;42.45;;;39.63;;
80819;SDS011;70225;48.404;8.016;2023-06-24T04:47:07;43.25;;;40.28;;
80819;SDS011;70225;48.404;8.016;2023-06-24T04:49:32;37.97;;;35.17;;
80819;SDS011;70225;48.404;8.016;2023-06-24T04:52:00;35.45;;;32.97;;
80819;SDS011;70225;48.404;8.016;2023-06-24T04:54:25;34.60;;;32.20;;
80819;SDS011;70225;48.404;8.016;2023-06-24T04:56:51;34.22;;;31.65;;
80819;SDS011;70225;48.404;8.016;2023-06-24T04:59:16;35.13;;;32.57;;
80819;SDS011;70225;48.404;8.016;2023-06-24T05:01:41;34.30;;;31.80;;
80819;SDS011;70225;48.404;8.016;2023-06-24T05:04:06;32.97;;;30.57;;
80819;SDS011;70225;48.404;8.016;2023-06-24T05:06:34;31.37;;;29.03;;
80819;SDS011;70225;48.404;8.016;2023-06-24T05:08:59;32.75;;;30.45;;
80819;SDS011;70225;48.404;8.016;2023-06-24T05:11:24;28.83;;;26.83;;
80819;SDS011;70225;48.404;8.016;2023-06-24T05:13:50;28.77;;;26.57;;
80819;SDS011;70225;48.404;8.016;2023-06-24T05:16:15;28.20;;;25.90;;
80819;SDS011;70225;48.404;8.016;2023-06-24T05:18:40;31.25;;;29.10;;
80819;SDS011;70225;48.404;8.016;2023-06-24T05:21:05;32.13;;;29.65;;
80819;SDS011;70225;48.404;8.016;2023-06-24T05:23:35;31.50;;;29.10;;
80819;SDS011;70225;48.404;8.016;2023-06-24T05:26:00;31.55;;;29.27;;
80819;SDS011;70225;48.404;8.016;2023-06-24T05:28:26;31.20;;;29.00;;
80819;SDS011;70225;48.404;8.016;2023-06-24T05:30:51;40.10;;;37.33;;
80819;SDS011;70225;48.404;8.016;2023-06-24T05:33:16;44.37;;;41.30;;
80819;SDS011;70225;48.404;8.016;2023-06-24T05:35:42;43.77;;;40.43;;
80819;SDS011;70225;48.404;8.016;2023-06-24T05:38:08;46.63;;;43.55;;
80819;SDS011;70225;48.404;8.016;2023-06-24T05:40:33;38.60;;;35.77;;
80819;SDS011;70225;48.404;8.016;2023-06-24T05:42:59;45.60;;;42.53;;
80819;SDS011;70225;48.404;8.016;2023-06-24T05:45:24;49.97;;;46.43;;
80819;SDS011;70225;48.404;8.016;2023-06-24T05:47:51;47.08;;;43.92;;
80819;SDS011;70225;48.404;8.016;2023-06-24T05:50:17;42.30;;;39.40;;
80819;SDS011;70225;48.404;8.016;2023-06-24T05:52:42;34.30;;;31.73;;
80819;SDS011;70225;48.404;8.016;2023-06-24T05:55:10;40.58;;;37.90;;
80819;SDS011;70225;48.404;8.016;2023-06-24T05:57:35;24.37;;;22.67;;
80819;SDS011;70225;48.404;8.016;2023-06-24T06:00:00;32.30;;;29.80;;
80819;SDS011;70225;48.404;8.016;2023-06-24T06:02:25;30.83;;;28.33;;
80819;SDS011;70225;48.404;8.016;2023-06-24T06:04:53;22.92;;;21.25;;
80819;SDS011;70225;48.404;8.016;2023-06-24T06:07:18;26.23;;;24.33;;
80819;SDS011;70225;48.404;8.016;2023-06-24T06:09:43;24.57;;;22.77;;
80819;SDS011;70225;48.404;8.016;2023-06-24T06:12:08;22.03;;;20.53;;
80819;SDS011;70225;48.404;8.016;2023-06-24T06:14:34;36.72;;;34.00;;
80819;SDS011;70225;48.404;8.016;2023-06-24T06:16:59;22.02;;;20.17;;
80819;SDS011;70225;48.404;8.016;2023-06-24T06:19:24;21.57;;;20.10;;
80819;SDS011;70225;48.404;8.016;2023-06-24T06:21:54;21.73;;;19.90;;
80819;SDS011;70225;48.404;8.016;2023-06-24T06:24:19;25.77;;;23.52;;
80819;SDS011;70225;48.404;8.016;2023-06-24T06:26:44;29.97;;;27.87;;
80819;SDS011;70225;48.404;8.016;2023-06-24T06:29:10;25.73;;;23.75;;
80819;SDS011;70225;48.404;8.016;2023-06-24T06:31:38;65.07;;;60.85;;
80819;SDS011;70225;48.404;8.016;2023-06-24T06:34:03;32.28;;;30.15;;
80819;SDS011;70225;48.404;8.016;2023-06-24T06:36:29;20.53;;;19.03;;
80819;SDS011;70225;48.404;8.016;2023-06-24T06:38:54;27.00;;;25.02;;
80819;SDS011;70225;48.404;8.016;2023-06-24T06:41:19;19.52;;;18.00;;
80819;SDS011;70225;48.404;8.016;2023-06-24T06:43:44;24.83;;;23.10;;
80819;SDS011;70225;48.404;8.016;2023-06-24T06:46:10;194.67;;;183.07;;
80819;SDS011;70225;48.404;8.016;2023-06-24T06:48:35;65.80;;;61.47;;
80819;SDS011;70225;48.404;8.016;2023-06-24T06:51:00;49.53;;;46.23;;
80819;SDS011;70225;48.404;8.016;2023-06-24T06:53:30;46.05;;;43.00;;
80819;SDS011;70225;48.404;8.016;2023-06-24T06:55:55;24.00;;;22.27;;
80819;SDS011;70225;48.404;8.016;2023-06-24T06:58:20;32.43;;;30.17;;
80819;SDS011;70225;48.404;8.016;2023-06-24T07:00:46;29.93;;;27.93;;
80819;SDS011;70225;48.404;8.016;2023-06-24T07:03:11;30.50;;;28.45;;
80819;SDS011;70225;48.404;8.016;2023-06-24T07:05:36;31.87;;;29.50;;
80819;SDS011;70225;48.404;8.016;2023-06-24T07:08:01;23.15;;;21.27;;
80819;SDS011;70225;48.404;8.016;2023-06-24T07:10:26;25.10;;;23.08;;
80819;SDS011;70225;48.404;8.016;2023-06-24T07:12:52;29.00;;;26.97;;
80819;SDS011;70225;48.404;8.016;2023-06-24T07:15:17;37.50;;;35.00;;
80819;SDS011;70225;48.404;8.016;2023-06-24T07:17:42;31.35;;;29.13;;
80819;SDS011;70225;48.404;8.016;2023-06-24T07:20:10;41.20;;;38.55;;
80819;SDS011;70225;48.404;8.016;2023-06-24T07:22:35;30.13;;;27.73;;
80819;SDS011;70225;48.404;8.016;2023-06-24T07:25:00;22.00;;;20.23;;
80819;SDS011;70225;48.404;8.016;2023-06-24T07:27:25;24.17;;;22.27;;
80819;SDS011;70225;48.404;8.016;2023-06-24T07:29:51;23.63;;;22.00;;
80819;SDS011;70225;48.404;8.016;2023-06-24T07:32:18;26.80;;;24.67;;
80819;SDS011;70225;48.404;8.016;2023-06-24T07:34:43;25.50;;;23.58;;
80819;SDS011;70225;48.404;8.016;2023-06-24T07:37:09;25.13;;;23.37;;
80819;SDS011;70225;48.404;8.016;2023-06-24T07:39:34;22.83;;;20.93;;
80819;SDS011;70225;48.404;8.016;2023-06-24T07:41:59;22.83;;;20.80;;
80819;SDS011;70225;48.404;8.016;2023-06-24T07:44:24;20.17;;;18.87;;
80819;SDS011;70225;48.404;8.016;2023-06-24T07:46:49;23.40;;;21.70;;
80819;SDS011;70225;48.404;8.016;2023-06-24T07:49:15;20.23;;;18.50;;
80819;SDS011;70225;48.404;8.016;2023-06-24T07:51:40;17.10;;;15.47;;
80819;SDS011;70225;48.404;8.016;2023-06-24T07:54:07;19.40;;;17.73;;
80819;SDS011;70225;48.404;8.016;2023-06-24T07:56:32;18.88;;;17.58;;
80819;SDS011;70225;48.404;8.016;2023-06-24T07:59:00;16.37;;;15.20;;
80819;SDS011;70225;48.404;8.016;2023-06-24T08:01:26;16.77;;;15.57;;
80819;SDS011;70225;48.404;8.016;2023-06-24T08:03:53;20.30;;;18.90;;
80819;SDS011;70225;48.404;8.016;2023-06-24T08:06:23;24.95;;;22.85;;
80819;SDS011;70225;48.404;8.016;2023-06-24T08:08:48;29.63;;;27.02;;
80819;SDS011;70225;48.404;8.016;2023-06-24T08:11:14;17.27;;;15.97;;
80819;SDS011;70225;48.404;8.016;2023-06-24T08:13:39;16.03;;;14.73;;
80819;SDS011;70225;48.404;8.016;2023-06-24T08:16:04;18.70;;;17.45;;
80819;SDS011;70225;48.404;8.016;2023-06-24T08:18:30;17.35;;;15.82;;
80819;SDS011;70225;48.404;8.016;2023-06-24T08:20:55;16.83;;;15.57;;
80819;SDS011;70225;48.404;8.016;2023-06-24T08:23:20;14.82;;;13.30;;
80819;SDS011;70225;48.404;8.016;2023-06-24T08:25:46;13.63;;;12.60;;
80819;SDS011;70225;48.404;8.016;2023-06-24T08:28:11;14.70;;;13.60;;
80819;SDS011;70225;48.404;8.016;2023-06-24T08:30:36;16.13;;;14.83;;
80819;SDS011;70225;48.404;8.016;2023-06-24T08:33:01;15.43;;;14.18;;
80819;SDS011;70225;48.404;8.016;2023-06-24T08:35:27;14.50;;;13.40;;
80819;SDS011;70225;48.404;8.016;2023-06-24T08:37:54;14.90;;;13.63;;
80819;SDS011;70225;48.404;8.016;2023-06-24T08:40:20;17.33;;;15.93;;
80819;SDS011;70225;48.404;8.016;2023-06-24T08:42:45;16.07;;;14.87;;
80819;SDS011;70225;48.404;8.016;2023-06-24T08:45:10;15.97;;;14.67;;
80819;SDS011;70225;48.404;8.016;2023-06-24T08:47:36;15.80;;;14.48;;
80819;SDS011;70225;48.404;8.016;2023-06-24T08:50:02;17.60;;;16.00;;
80819;SDS011;70225;48.404;8.016;2023-06-24T08:52:30;14.90;;;13.82;;
80819;SDS011;70225;48.404;8.016;2023-06-24T08:54:57;14.70;;;13.40;;
80819;SDS011;70225;48.404;8.016;2023-06-24T08:57:24;14.73;;;13.52;;
80819;SDS011;70225;48.404;8.016;2023-06-24T08:59:52;14.65;;;13.55;;
80819;SDS011;70225;48.404;8.016;2023-06-24T09:02:18;17.73;;;16.42;;
80819;SDS011;70225;48.404;8.016;2023-06-24T09:04:43;15.03;;;13.93;;
80819;SDS011;70225;48.404;8.016;2023-06-24T09:07:10;14.52;;;13.40;;
80819;SDS011;70225;48.404;8.016;2023-06-24T09:09:42;15.80;;;14.40;;
80819;SDS011;70225;48.404;8.016;2023-06-24T09:12:10;15.77;;;14.55;;
80819;SDS011;70225;48.404;8.016;2023-06-24T09:14:37;14.23;;;13.32;;
80819;SDS011;70225;48.404;8.016;2023-06-24T09:17:05;22.98;;;21.13;;
80819;SDS011;70225;48.404;8.016;2023-06-24T09:19:30;15.17;;;14.17;;
80819;SDS011;70225;48.404;8.016;2023-06-24T09:21:56;13.83;;;12.87;;
80819;SDS011;70225;48.404;8.016;2023-06-24T09:24:32;13.93;;;13.00;;
80819;SDS011;70225;48.404;8.016;2023-06-24T09:26:58;13.40;;;12.30;;
80819;SDS011;70225;48.404;8.016;2023-06-24T09:29:27;13.60;;;12.35;;
80819;SDS011;70225;48.404;8.016;2023-06-24T09:31:53;14.88;;;13.48;;
80819;SDS011;70225;48.404;8.016;2023-06-24T09:34:19;12.88;;;11.70;;
80819;SDS011;70225;48.404;8.016;2023-06-24T09:36:56;27.92;;;25.55;;
80819;SDS011;70225;48.404;8.016;2023-06-24T09:39:23;15.43;;;14.32;;
80819;SDS011;70225;48.404;8.016;2023-06-24T09:41:49;14.02;;;13.02;;
80819;SDS011;70225;48.404;8.016;2023-06-24T09:44:17;13.30;;;12.40;;
80819;SDS011;70225;48.404;8.016;2023-06-24T09:46:42;13.43;;;12.43;;
80819;SDS011;70225;48.404;8.016;2023-06-24T09:49:10;15.43;;;14.43;;
80819;SDS011;70225;48.404;8.016;2023-06-24T09:51:37;16.00;;;14.80;;
80819;SDS011;70225;48.404;8.016;2023-06-24T09:54:05;13.75;;;12.95;;
80819;SDS011;70225;48.404;8.016;2023-06-24T09:56:31;14.13;;;13.23;;
80819;SDS011;70225;48.404;8.016;2023-06-24T09:59:02;15.18;;;14.10;;
80819;SDS011;70225;48.404;8.016;2023-06-24T10:01:28;43.67;;;39.80;;
80819;SDS011;70225;48.404;8.016;2023-06-24T10:03:55;14.70;;;13.60;;
80819;SDS011;70225;48.404;8.016;2023-06-24T10:06:20;14.20;;;13.00;;
80819;SDS011;70225;48.404;8.016;2023-06-24T10:08:48;14.83;;;13.53;;
80819;SDS011;70225;48.404;8.016;2023-06-24T10:11:14;14.02;;;13.13;;
80819;SDS011;70225;48.404;8.016;2023-06-24T10:13:39;13.70;;;12.57;;
80819;SDS011;70225;48.404;8.016;2023-06-24T10:16:05;13.88;;;12.70;;
80819;SDS011;70225;48.404;8.016;2023-06-24T10:20:55;14.43;;;13.20;;
80819;SDS011;70225;48.404;8.016;2023-06-24T10:23:23;14.25;;;13.23;;
80819;SDS011;70225;48.404;8.016;2023-06-24T10:25:55;14.23;;;13.13;;
80819;SDS011;70225;48.404;8.016;2023-06-24T10:28:20;13.73;;;12.67;;
80819;SDS011;70225;48.404;8.016;2023-06-24T10:30:54;14.35;;;13.25;;
80819;SDS011;70225;48.404;8.016;2023-06-24T10:33:20;14.10;;;12.95;;
80819;SDS011;70225;48.404;8.016;2023-06-24T10:35:45;13.80;;;12.80;;
80819;SDS011;70225;48.404;8.016;2023-06-24T10:38:13;14.77;;;13.68;;
80819;SDS011;70225;48.404;8.016;2023-06-24T10:40:39;18.43;;;16.93;;
80819;SDS011;70225;48.404;8.016;2023-06-24T10:43:39;17.45;;;16.25;;
80819;SDS011;70225;48.404;8.016;2023-06-24T10:46:06;15.43;;;13.82;;
80819;SDS011;70225;48.404;8.016;2023-06-24T10:48:39;14.63;;;13.63;;
80819;SDS011;70225;48.404;8.016;2023-06-24T10:51:05;14.67;;;13.77;;
80819;SDS011;70225;48.404;8.016;2023-06-24T10:53:31;16.40;;;14.83;;
80819;SDS011;70225;48.404;8.016;2023-06-24T10:55:57;14.13;;;13.05;;
80819;SDS011;70225;48.404;8.016;2023-06-24T10:58:25;14.05;;;13.00;;
80819;SDS011;70225;48.404;8.016;2023-06-24T11:00:50;14.32;;;13.18;;
80819;SDS011;70225;48.404;8.016;2023-06-24T11:03:17;13.93;;;12.90;;
80819;SDS011;70225;48.404;8.016;2023-06-24T11:05:43;14.03;;;12.80;;
80819;SDS011;70225;48.404;8.016;2023-06-24T11:08:10;15.10;;;14.07;;
80819;SDS011;70225;48.404;8.016;2023-06-24T11:10:45;15.15;;;13.95;;
80819;SDS011;70225;48.404;8.016;2023-06-24T11:13:12;15.32;;;14.13;;
80819;SDS011;70225;48.404;8.016;2023-06-24T11:15:38;14.23;;;13.25;;
80819;SDS011;70225;48.404;8.016;2023-06-24T11:18:04;13.18;;;12.38;;
80819;SDS011;70225;48.404;8.016;2023-06-24T11:20:29;13.10;;;12.07;;
80819;SDS011;70225;48.404;8.016;2023-06-24T11:22:54;13.82;;;12.93;;
80819;SDS011;70225;48.404;8.016;2023-06-24T11:25:20;13.90;;;13.00;;
80819;SDS011;70225;48.404;8.016;2023-06-24T11:27:46;14.20;;;12.95;;
80819;SDS011;70225;48.404;8.016;2023-06-24T11:30:12;12.90;;;12.10;;
80819;SDS011;70225;48.404;8.016;2023-06-24T11:32:38;13.70;;;12.60;;
80819;SDS011;70225;48.404;8.016;2023-06-24T11:35:08;14.60;;;13.50;;
80819;SDS011;70225;48.404;8.016;2023-06-24T11:37:35;15.15;;;14.05;;
80819;SDS011;70225;48.404;8.016;2023-06-24T11:40:02;16.42;;;15.27;;
80819;SDS011;70225;48.404;8.016;2023-06-24T11:42:28;13.57;;;12.63;;
80819;SDS011;70225;48.404;8.016;2023-06-24T11:45:00;14.55;;;13.18;;
80819;SDS011;70225;48.404;8.016;2023-06-24T11:49:57;13.48;;;12.38;;
80819;SDS011;70225;48.404;8.016;2023-06-24T11:52:41;14.40;;;13.38;;
80819;SDS011;70225;48.404;8.016;2023-06-24T12:00:36;14.18;;;13.20;;
80819;SDS011;70225;48.404;8.016;2023-06-24T12:03:04;14.43;;;13.43;;
80819;SDS011;70225;48.404;8.016;2023-06-24T12:05:34;14.98;;;13.80;;
80819;SDS011;70225;48.404;8.016;2023-06-24T12:08:01;16.08;;;14.70;;
80819;SDS011;70225;48.404;8.016;2023-06-24T12:10:29;16.33;;;15.02;;
80819;SDS011;70225;48.404;8.016;2023-06-24T12:12:57;16.85;;;15.55;;
80819;SDS011;70225;48.404;8.016;2023-06-24T12:15:23;16.42;;;15.07;;
80819;SDS011;70225;48.404;8.016;2023-06-24T12:17:48;13.10;;;12.20;;
80819;SDS011;70225;48.404;8.016;2023-06-24T12:20:14;13.73;;;12.83;;
80819;SDS011;70225;48.404;8.016;2023-06-24T12:22:40;13.38;;;12.50;;
80819;SDS011;70225;48.404;8.016;2023-06-24T12:25:10;13.52;;;12.63;;
80819;SDS011;70225;48.404;8.016;2023-06-24T12:27:36;13.10;;;12.10;;
80819;SDS011;70225;48.404;8.016;2023-06-24T12:30:04;15.00;;;13.73;;
80819;SDS011;70225;48.404;8.016;2023-06-24T12:32:29;14.20;;;13.05;;
80819;SDS011;70225;48.404;8.016;2023-06-24T12:34:55;14.20;;;13.00;;
80819;SDS011;70225;48.404;8.016;2023-06-24T12:37:21;13.70;;;12.80;;
80819;SDS011;70225;48.404;8.016;2023-06-24T12:39:47;13.02;;;11.90;;
80819;SDS011;70225;48.404;8.016;2023-06-24T12:42:12;13.67;;;12.57;;
80819;SDS011;70225;48.404;8.016;2023-06-24T12:44:37;16.13;;;14.70;;
80819;SDS011;70225;48.404;8.016;2023-06-24T12:47:03;15.30;;;14.20;;
80819;SDS011;70225;48.404;8.016;2023-06-24T12:49:28;14.20;;;13.15;;
80819;SDS011;70225;48.404;8.016;2023-06-24T12:51:53;13.97;;;13.07;;
80819;SDS011;70225;48.404;8.016;2023-06-24T12:54:19;13.13;;;12.10;;
80819;SDS011;70225;48.404;8.016;2023-06-24T12:56:46;12.60;;;11.53;;
80819;SDS011;70225;48.404;8.016;2023-06-24T12:59:11;12.32;;;11.52;;
80819;SDS011;70225;48.404;8.016;2023-06-24T13:01:39;13.65;;;12.70;;
80819;SDS011;70225;48.404;8.016;2023-06-24T13:04:04;12.43;;;11.63;;
80819;SDS011;70225;48.404;8.016;2023-06-24T13:06:29;13.00;;;12.10;;
80819;SDS011;70225;48.404;8.016;2023-06-24T13:08:54;12.97;;;12.07;;
80819;SDS011;70225;48.404;8.016;2023-06-24T13:11:22;12.68;;;11.90;;
80819;SDS011;70225;48.404;8.016;2023-06-24T13:13:47;13.90;;;12.27;;
80819;SDS011;70225;48.404;8.016;2023-06-24T13:16:12;12.97;;;11.87;;
80819;SDS011;70225;48.404;8.016;2023-06-24T13:18:37;13.30;;;12.40;;
80819;SDS011;70225;48.404;8.016;2023-06-24T13:21:03;12.63;;;11.50;;
80819;SDS011;70225;48.404;8.016;2023-06-24T13:23:30;13.37;;;12.37;;
80819;SDS011;70225;48.404;8.016;2023-06-24T13:25:56;14.60;;;13.65;;
80819;SDS011;70225;48.404;8.016;2023-06-24T13:28:21;17.07;;;15.63;;
80819;SDS011;70225;48.404;8.016;2023-06-24T13:30:46;16.00;;;14.80;;
80819;SDS011;70225;48.404;8.016;2023-06-24T13:33:14;12.65;;;11.85;;
80819;SDS011;70225;48.404;8.016;2023-06-24T13:35:39;12.60;;;11.80;;
80819;SDS011;70225;48.404;8.016;2023-06-24T13:38:05;11.93;;;11.23;;
80819;SDS011;70225;48.404;8.016;2023-06-24T13:40:30;11.70;;;11.00;;
80819;SDS011;70225;48.404;8.016;2023-06-24T13:42:55;15.33;;;14.33;;
80819;SDS011;70225;48.404;8.016;2023-06-24T13:45:20;13.30;;;12.40;;
80819;SDS011;70225;48.404;8.016;2023-06-24T13:47:45;12.73;;;11.83;;
80819;SDS011;70225;48.404;8.016;2023-06-24T13:50:13;13.63;;;12.50;;
80819;SDS011;70225;48.404;8.016;2023-06-24T13:52:41;13.07;;;12.18;;
80819;SDS011;70225;48.404;8.016;2023-06-24T13:55:06;14.27;;;13.23;;
80819;SDS011;70225;48.404;8.016;2023-06-24T13:57:34;13.13;;;12.20;;
80819;SDS011;70225;48.404;8.016;2023-06-24T13:59:59;13.13;;;12.02;;
80819;SDS011;70225;48.404;8.016;2023-06-24T14:02:24;12.17;;;11.37;;
80819;SDS011;70225;48.404;8.016;2023-06-24T14:04:54;12.68;;;11.80;;
80819;SDS011;70225;48.404;8.016;2023-06-24T14:07:20;13.32;;;12.13;;
80819;SDS011;70225;48.404;8.016;2023-06-24T14:09:48;12.60;;;11.60;;
80819;SDS011;70225;48.404;8.016;2023-06-24T14:12:14;12.93;;;12.05;;
80819;SDS011;70225;48.404;8.016;2023-06-24T14:14:39;13.50;;;12.17;;
80819;SDS011;70225;48.404;8.016;2023-06-24T14:17:05;13.20;;;12.10;;
80819;SDS011;70225;48.404;8.016;2023-06-24T14:19:34;12.70;;;11.90;;
80819;SDS011;70225;48.404;8.016;2023-06-24T14:22:00;14.07;;;12.88;;
80819;SDS011;70225;48.404;8.016;2023-06-24T14:24:25;12.70;;;11.90;;
80819;SDS011;70225;48.404;8.016;2023-06-24T14:26:50;14.53;;;13.53;;
80819;SDS011;70225;48.404;8.016;2023-06-24T14:29:16;12.83;;;11.93;;
80819;SDS011;70225;48.404;8.016;2023-06-24T14:31:41;12.40;;;11.50;;
80819;SDS011;70225;48.404;8.016;2023-06-24T14:34:09;13.30;;;12.40;;
80819;SDS011;70225;48.404;8.016;2023-06-24T14:36:34;12.97;;;11.97;;
80819;SDS011;70225;48.404;8.016;2023-06-24T14:39:04;13.82;;;12.68;;
80819;SDS011;70225;48.404;8.016;2023-06-24T14:41:30;13.13;;;12.25;;
80819;SDS011;70225;48.404;8.016;2023-06-24T14:43:57;13.07;;;12.10;;